createdAt,value
2023-03-15T01:52:29.506Z,0.62
2023-03-15T01:56:29.523Z,0.52
2023-03-15T02:00:29.254Z,0.61
2023-03-15T02:04:29.506Z,0.38
2023-03-15T02:08:29.512Z,0.80
2023-03-15T02:12:29.754Z,0.37
2023-03-15T02:16:29.853Z,0.73
2023-03-15T02:20:30.031Z,0.54
2023-03-15T02:24:30.029Z,0.46
2023-03-15T02:28:29.865Z,0.36
2023-03-15T02:32:30.144Z,0.50
2023-03-15T02:36:29.896Z,0.64
2023-03-15T02:40:30.002Z,0.48
2023-03-15T02:44:30.035Z,0.39
2023-03-15T02:48:30.104Z,0.45
2023-03-15T02:52:31.033Z,0.39
2023-03-15T02:56:30.139Z,0.51
2023-03-15T03:00:30.177Z,0.43
2023-03-15T03:04:30.567Z,0.71
2023-03-15T03:08:30.663Z,0.35
2023-03-15T03:12:30.943Z,0.34
2023-03-15T03:16:31.230Z,0.53
2023-03-15T03:20:31.491Z,0.27
2023-03-15T03:24:32.043Z,0.20
2023-03-15T03:28:32.045Z,0.60
2023-03-15T03:32:32.287Z,0.35
2023-03-15T03:36:32.685Z,0.43
2023-03-15T03:40:32.296Z,0.57
2023-03-15T03:44:32.317Z,0.51
2023-03-15T03:48:32.555Z,0.40
2023-03-15T03:52:32.394Z,0.48
2023-03-15T03:56:32.567Z,0.45
2023-03-15T04:00:32.818Z,0.44
2023-03-15T04:04:33.131Z,0.29
2023-03-15T04:08:33.381Z,0.45
2023-03-15T04:16:40.049Z,0.38
2023-03-15T04:56:35.604Z,0.21
2023-03-15T05:00:35.574Z,0.18
2023-03-15T05:04:35.812Z,0.53
2023-03-15T05:08:36.045Z,0.37
2023-03-15T05:12:36.608Z,0.46
2023-03-15T05:16:36.386Z,0.32
2023-03-15T05:20:36.312Z,0.30
2023-03-15T05:24:36.335Z,0.33
2023-03-15T05:28:36.382Z,0.26
2023-03-15T05:32:36.415Z,0.24
2023-03-15T05:36:36.395Z,0.50
2023-03-15T05:40:36.540Z,0.26
2023-03-15T05:44:36.622Z,0.31
2023-03-15T05:48:36.544Z,0.33
2023-03-15T05:52:36.609Z,0.31
2023-03-15T05:56:36.592Z,0.87
2023-03-15T06:00:36.621Z,0.31
2023-03-15T06:04:36.756Z,0.36
2023-03-15T06:08:36.690Z,0.49
2023-03-15T06:12:36.947Z,0.45
2023-03-15T06:16:37.680Z,0.26
2023-03-15T06:20:37.613Z,0.27
2023-03-15T06:24:38.139Z,0.41
2023-03-15T06:28:37.605Z,0.29
2023-03-15T06:32:37.685Z,0.34
2023-03-15T06:36:37.615Z,0.65
2023-03-15T06:40:37.615Z,0.34
2023-03-15T06:44:38.115Z,0.74
2023-03-15T06:48:38.214Z,0.26
2023-03-15T06:56:38.631Z,0.87
2023-03-15T08:56:06.058Z,1.21
2023-03-15T09:00:07.027Z,0.96
2023-03-15T09:04:07.595Z,0.97
2023-03-15T09:08:07.546Z,0.97
2023-03-15T09:12:08.049Z,0.76
2023-03-15T09:16:07.466Z,0.81
2023-03-15T09:20:08.121Z,1.10
2023-03-15T09:24:08.032Z,1.20
2023-03-15T09:28:09.613Z,1.93
2023-03-15T09:32:09.068Z,0.85
2023-03-15T09:36:09.031Z,0.99
2023-03-15T09:40:08.884Z,0.86
2023-03-15T09:44:09.556Z,0.81
2023-03-15T09:48:09.554Z,0.60
2023-03-15T09:52:10.046Z,0.67
2023-03-15T09:56:10.036Z,0.84
2023-03-15T10:00:10.567Z,0.83
2023-03-15T10:04:11.054Z,1.29
2023-03-15T10:08:12.142Z,1.06
2023-03-15T10:12:11.047Z,0.90
2023-03-15T10:16:11.713Z,0.71
2023-03-15T10:20:12.268Z,0.76
2023-03-15T10:24:12.055Z,0.86
2023-03-15T10:28:12.056Z,1.01
2023-03-15T10:32:12.650Z,0.78
2023-03-15T10:36:12.606Z,0.77
2023-03-15T10:40:13.053Z,0.89
2023-03-15T10:44:13.053Z,1.21
2023-03-15T10:48:13.357Z,1.26
2023-03-15T10:52:14.055Z,1.03
2023-03-15T10:56:14.076Z,1.26
2023-03-15T11:00:14.559Z,1.20
2023-03-15T11:04:14.626Z,1.20
2023-03-15T11:08:14.646Z,0.59
2023-03-15T11:12:15.073Z,0.51
2023-03-15T11:16:15.678Z,0.53
2023-03-15T11:20:23.501Z,0.64
2023-03-15T11:24:16.128Z,0.57
2023-03-15T11:28:16.069Z,0.49
2023-03-15T11:32:15.919Z,0.64
2023-03-15T11:36:16.102Z,0.69
2023-03-15T11:40:17.324Z,0.39
2023-03-15T11:44:16.570Z,0.62
2023-03-15T11:48:16.573Z,0.75
2023-03-15T11:52:17.099Z,0.47
2023-03-15T11:56:17.079Z,0.92
2023-03-15T12:00:17.228Z,0.92
2023-03-15T12:04:17.581Z,0.95
2023-03-15T12:08:18.106Z,0.60
2023-03-15T12:12:17.584Z,0.99
2023-03-15T12:16:18.100Z,1.00
2023-03-15T12:20:18.139Z,0.78
2023-03-15T12:24:18.114Z,0.70
2023-03-15T12:28:18.588Z,0.70
2023-03-15T12:32:18.589Z,0.88
2023-03-15T12:36:19.084Z,0.48
2023-03-15T12:40:19.638Z,0.80
2023-03-15T12:44:18.946Z,0.96
2023-03-15T12:48:19.054Z,0.79
2023-03-15T12:52:19.265Z,0.61
2023-03-15T12:56:19.637Z,0.50
2023-03-15T13:00:20.638Z,0.87
2023-03-15T13:04:20.097Z,0.92
2023-03-15T13:08:19.935Z,1.50
2023-03-15T13:12:20.132Z,1.23
2023-03-15T13:16:20.237Z,1.26
2023-03-15T13:20:20.099Z,1.10
2023-03-15T13:24:21.103Z,0.98
2023-03-15T13:28:20.290Z,1.15
2023-03-15T13:32:20.618Z,1.02
2023-03-15T13:36:21.109Z,1.28
2023-03-15T13:40:20.892Z,0.78
2023-03-15T13:44:21.667Z,1.12
2023-03-15T13:48:21.620Z,1.30
2023-03-15T13:52:21.510Z,0.91
2023-03-15T13:56:22.688Z,1.51
2023-03-15T14:00:22.658Z,0.90
2023-03-15T14:04:22.081Z,1.27
2023-03-15T14:08:22.632Z,1.31
2023-03-15T14:12:22.628Z,1.01
2023-03-15T14:16:23.265Z,1.38
2023-03-15T14:20:23.163Z,1.31
2023-03-15T14:24:23.634Z,1.40
2023-03-15T14:28:24.635Z,1.17
2023-03-15T14:32:24.311Z,1.28
2023-03-15T14:36:24.205Z,1.06
2023-03-15T14:40:24.415Z,1.56
2023-03-15T14:44:25.142Z,1.34
2023-03-15T14:48:25.183Z,1.03
2023-03-15T14:52:25.646Z,1.35
2023-03-15T14:56:25.643Z,1.38
2023-03-15T15:00:25.646Z,1.31
2023-03-15T15:04:26.179Z,1.65
2023-03-15T15:08:26.153Z,1.62
2023-03-15T15:12:26.170Z,3.05
2023-03-15T15:16:26.113Z,2.28
2023-03-15T15:20:26.255Z,1.92
2023-03-15T15:24:26.657Z,2.09
2023-03-15T15:28:36.472Z,2.02
2023-03-15T15:32:26.668Z,2.09
2023-03-15T15:36:26.601Z,1.62
2023-03-15T15:40:26.667Z,1.58
2023-03-15T15:44:26.703Z,1.64
2023-03-15T15:48:27.168Z,1.24
2023-03-15T15:52:27.188Z,1.29
2023-03-15T15:56:27.184Z,1.57
2023-03-15T16:00:27.166Z,1.35
2023-03-15T16:04:27.820Z,1.63
2023-03-15T16:08:27.700Z,1.37
2023-03-15T16:12:27.197Z,1.43
2023-03-15T16:16:27.122Z,1.57
2023-03-15T16:20:28.170Z,1.19
2023-03-15T16:24:27.469Z,1.38
2023-03-15T16:28:27.695Z,1.16
2023-03-15T16:32:43.058Z,1.05
2023-03-15T16:36:27.836Z,1.27
2023-03-15T16:40:28.203Z,1.46
2023-03-15T16:44:27.927Z,1.25
2023-03-15T16:48:27.977Z,1.20
2023-03-15T16:52:28.028Z,1.02
2023-03-15T16:56:28.107Z,2.04
2023-03-15T17:00:28.126Z,1.04
2023-03-15T17:04:28.236Z,1.21
2023-03-15T17:08:28.245Z,0.85
2023-03-15T17:12:28.366Z,1.23
2023-03-15T17:16:28.584Z,0.98
2023-03-15T17:20:28.783Z,1.33
2023-03-15T17:24:29.014Z,1.06
2023-03-15T17:28:29.285Z,1.09
2023-03-15T17:32:29.568Z,1.34
2023-03-15T17:36:30.217Z,0.99
2023-03-15T17:40:30.078Z,0.94
2023-03-15T17:44:30.255Z,1.04
2023-03-15T17:48:30.464Z,1.13
2023-03-15T17:52:30.712Z,0.85
2023-03-15T17:56:30.936Z,0.87
2023-03-15T18:00:31.217Z,0.87
2023-03-15T18:04:31.435Z,0.82
2023-03-15T18:08:31.701Z,0.89
2023-03-15T18:12:31.949Z,0.99
2023-03-15T18:16:32.810Z,1.17
2023-03-15T18:20:32.457Z,0.91
2023-03-15T18:24:32.650Z,1.09
2023-03-15T18:28:32.880Z,0.77
2023-03-15T18:32:33.263Z,0.84
2023-03-15T18:36:33.378Z,0.85
2023-03-15T18:40:33.610Z,0.82
2023-03-15T18:44:33.842Z,0.82
2023-03-15T18:48:40.551Z,0.92
2023-03-15T18:52:34.136Z,0.84
2023-03-15T18:56:34.247Z,0.70
2023-03-15T19:00:34.293Z,0.99
2023-03-15T19:04:34.411Z,0.74
2023-03-15T19:08:34.478Z,0.89
2023-03-15T19:12:34.568Z,0.73
2023-03-15T19:16:34.727Z,1.10
2023-03-15T19:20:34.778Z,0.73
2023-03-15T19:24:34.832Z,0.71
2023-03-15T19:28:34.916Z,0.66
2023-03-15T19:32:35.282Z,0.93
2023-03-15T19:36:35.456Z,1.07
2023-03-15T19:40:35.688Z,0.70
2023-03-15T19:44:36.251Z,0.86
2023-03-15T19:48:36.213Z,0.87
2023-03-15T20:48:40.495Z,0.84
2023-03-15T20:52:40.797Z,0.87
2023-03-15T20:56:41.091Z,0.74
2023-03-15T21:00:41.800Z,0.64
2023-03-15T21:04:41.664Z,0.63
2023-03-15T21:08:41.952Z,0.66
2023-03-15T21:12:42.311Z,0.86
2023-03-15T21:16:42.622Z,0.65
2023-03-15T21:20:42.827Z,0.81
2023-03-15T21:24:54.739Z,1.01
2023-03-15T21:28:43.241Z,0.48
2023-03-15T21:32:43.363Z,0.59
2023-03-15T21:36:43.398Z,0.70
2023-03-15T21:40:43.491Z,0.64
2023-03-15T21:44:43.830Z,0.60
2023-03-15T21:48:43.805Z,0.72
2023-03-15T21:52:43.794Z,0.65
2023-03-15T21:56:43.907Z,0.80
2023-03-15T22:00:44.344Z,0.69
2023-03-15T22:04:44.488Z,0.77
2023-03-15T22:08:44.743Z,0.68
2023-03-15T23:08:49.827Z,0.47
2023-03-15T23:12:49.689Z,0.63
2023-03-15T23:16:49.966Z,0.65
2023-03-15T23:20:50.302Z,0.68
2023-03-15T23:24:50.834Z,0.74
2023-03-15T23:28:50.916Z,0.65
2023-03-15T23:32:51.272Z,0.91
2023-03-15T23:36:51.658Z,0.64
2023-03-15T23:40:51.868Z,0.64
